Time;durP1;ratioP1;P1;durP2;ratioP2;P2;SDS_P1;SDS_P2;PMS_P1;PMS_P2;Temp;Humidity;BMP_temperature;BMP_pressure;BME280_temperature;BME280_humidity;BME280_pressure;Samples;Min_cycle;Max_cycle;Signal;HPM_P1;HPM_P2
2021/01/03 00:01:12;;;;;;;114.85;36.58;;;4.60;99.90;;;;;;5116348;22;20047;-60
2021/01/03 00:03:38;;;;;;;103.78;35.58;;;4.60;99.90;;;;;;5112494;28;20031;-59
2021/01/03 00:06:05;;;;;;;99.22;35.78;;;4.60;99.90;;;;;;5122137;28;20414;-60
2021/01/03 00:08:31;;;;;;;114.03;38.10;;;4.60;99.90;;;;;;5114256;28;20030;-60
2021/01/03 00:10:57;;;;;;;101.75;36.65;;;4.60;99.90;;;;;;5117217;28;20028;-60
2021/01/03 00:13:22;;;;;;;109.20;37.22;;;4.60;99.90;;;;;;5127302;27;20019;-60
2021/01/03 00:15:48;;;;;;;104.53;35.25;;;4.60;99.90;;;;;;5110086;28;20032;-59
2021/01/03 00:18:13;;;;;;;112.72;37.17;;;4.70;99.90;;;;;;5114293;28;20426;-60
2021/01/03 00:20:39;;;;;;;84.20;34.85;;;4.60;99.90;;;;;;5113930;27;20474;-60
2021/01/03 00:23:05;;;;;;;94.82;32.97;;;4.70;99.90;;;;;;5084998;28;20038;-60
2021/01/03 00:25:31;;;;;;;89.55;33.13;;;4.70;99.90;;;;;;5098464;28;20479;-60
2021/01/03 00:27:56;;;;;;;96.47;36.15;;;4.70;99.90;;;;;;5096872;27;20020;-59
2021/01/03 00:30:25;;;;;;;105.75;35.10;;;4.80;99.90;;;;;;5102613;27;20023;-59
2021/01/03 00:32:52;;;;;;;105.05;37.20;;;4.80;99.90;;;;;;5106383;27;20545;-59
2021/01/03 00:35:30;;;;;;;98.10;33.47;;;4.80;99.90;;;;;;5103541;27;20016;-60
2021/01/03 00:38:02;;;;;;;100.80;35.80;;;4.80;99.90;;;;;;5107334;28;20073;-59
2021/01/03 00:40:28;;;;;;;105.68;36.03;;;4.60;99.90;;;;;;5111258;28;20024;-60
2021/01/03 00:42:54;;;;;;;118.03;37.47;;;4.50;99.90;;;;;;5110433;28;20043;-60
2021/01/03 00:45:20;;;;;;;106.72;37.17;;;4.50;99.90;;;;;;5109953;28;20028;-60
2021/01/03 00:47:46;;;;;;;105.85;37.95;;;4.50;99.90;;;;;;5112160;27;20513;-59
2021/01/03 00:50:13;;;;;;;108.75;35.70;;;4.40;99.90;;;;;;5109767;28;20027;-59
2021/01/03 00:52:38;;;;;;;95.47;35.30;;;4.40;99.90;;;;;;5113601;27;20034;-59
2021/01/03 00:55:06;;;;;;;99.38;36.75;;;4.40;99.90;;;;;;5113729;28;20130;-60
2021/01/03 00:57:32;;;;;;;102.22;36.28;;;4.50;99.90;;;;;;5114047;28;20027;-60
2021/01/03 00:59:57;;;;;;;112.47;38.28;;;4.50;99.90;;;;;;5114152;28;20135;-63
2021/01/03 01:02:23;;;;;;;115.97;39.22;;;4.50;99.90;;;;;;5113863;28;20088;-60
2021/01/03 01:04:48;;;;;;;116.50;37.63;;;4.50;99.90;;;;;;5113510;28;20035;-59
2021/01/03 01:07:14;;;;;;;100.05;36.22;;;4.50;99.90;;;;;;5109066;28;20032;-59
2021/01/03 01:09:39;;;;;;;99.45;36.30;;;4.60;99.90;;;;;;5114076;28;20024;-59
2021/01/03 01:12:05;;;;;;;108.13;36.58;;;4.70;99.90;;;;;;5113581;28;20141;-60
2021/01/03 01:14:31;;;;;;;100.00;37.30;;;4.70;99.90;;;;;;5113885;28;20423;-59
2021/01/03 01:16:56;;;;;;;108.13;35.15;;;4.80;99.90;;;;;;5100927;28;20028;-60
2021/01/03 01:19:22;;;;;;;94.10;33.47;;;4.80;99.90;;;;;;5100962;27;20031;-59
2021/01/03 01:21:48;;;;;;;107.68;36.00;;;4.70;99.90;;;;;;5112836;27;20055;-60
2021/01/03 01:24:13;;;;;;;118.97;37.33;;;4.60;99.90;;;;;;5125635;27;20079;-60
2021/01/03 01:26:39;;;;;;;109.60;36.67;;;4.50;99.90;;;;;;5123970;27;20038;-60
2021/01/03 01:29:04;;;;;;;115.72;36.55;;;4.40;99.90;;;;;;5110087;28;20020;-59
2021/01/03 01:31:30;;;;;;;115.90;36.88;;;4.40;99.90;;;;;;5115875;27;20031;-59
2021/01/03 01:33:55;;;;;;;103.13;37.83;;;4.40;99.90;;;;;;5113846;28;20032;-60
2021/01/03 01:36:21;;;;;;;96.00;33.10;;;4.30;99.90;;;;;;5112583;28;20381;-59
2021/01/03 01:38:46;;;;;;;91.20;33.17;;;4.30;99.90;;;;;;5112846;28;20081;-59
2021/01/03 01:41:12;;;;;;;91.57;31.17;;;4.30;99.90;;;;;;5113046;27;20024;-60
2021/01/03 01:43:37;;;;;;;104.80;33.60;;;4.40;99.90;;;;;;5095092;28;20027;-60
2021/01/03 01:46:04;;;;;;;95.68;31.13;;;4.40;99.90;;;;;;5111601;27;20024;-60
2021/01/03 01:48:35;;;;;;;81.22;29.42;;;4.40;99.90;;;;;;5113039;28;20396;-59
2021/01/03 01:51:20;;;;;;;82.82;30.83;;;4.40;99.90;;;;;;5111376;28;20020;-60
2021/01/03 01:53:53;;;;;;;80.45;28.02;;;4.40;99.90;;;;;;5112475;28;20396;-61
2021/01/03 01:56:30;;;;;;;73.85;27.70;;;4.50;99.90;;;;;;5111950;28;20532;-60
2021/01/03 01:59:04;;;;;;;81.15;29.70;;;4.50;99.90;;;;;;5113163;28;20031;-61
2021/01/03 02:01:38;;;;;;;77.05;28.38;;;4.50;99.90;;;;;;5112202;28;20032;-59
2021/01/03 02:04:34;;;;;;;79.05;28.77;;;4.40;99.90;;;;;;5116915;27;20016;-60
2021/01/03 02:07:41;;;;;;;78.00;28.95;;;4.30;99.90;;;;;;5115148;28;20089;-59
2021/01/03 02:10:20;;;;;;;86.47;27.08;;;4.30;99.90;;;;;;5112972;28;20400;-60
2021/01/03 02:12:51;;;;;;;85.70;27.60;;;4.40;99.90;;;;;;5113071;28;20491;-58
2021/01/03 02:15:25;;;;;;;78.00;27.35;;;4.30;99.90;;;;;;5134536;27;20023;-59
2021/01/03 02:17:51;;;;;;;82.63;29.75;;;4.30;99.90;;;;;;5128179;28;20051;-60
2021/01/03 02:20:18;;;;;;;76.63;26.60;;;4.30;99.90;;;;;;5128627;28;20523;-59
2021/01/03 02:22:54;;;;;;;78.97;29.00;;;4.30;99.90;;;;;;5138036;27;20015;-59
2021/01/03 02:25:20;;;;;;;88.63;28.88;;;4.40;99.90;;;;;;5138145;27;20035;-59
2021/01/03 02:28:09;;;;;;;92.70;30.25;;;4.40;99.90;;;;;;5129691;27;20392;-60
2021/01/03 02:30:35;;;;;;;76.30;27.38;;;4.40;99.90;;;;;;5119992;27;20039;-59
2021/01/03 02:33:41;;;;;;;86.60;28.83;;;4.40;99.90;;;;;;5105429;27;20019;-60
2021/01/03 02:36:14;;;;;;;80.75;25.90;;;4.30;99.90;;;;;;5094499;28;20477;-59
2021/01/03 02:38:42;;;;;;;;;;;4.40;99.90;;;;;;5111433;28;20045;-60
2021/01/03 02:41:07;;;;;;;91.18;28.85;;;4.40;99.90;;;;;;5124009;27;19907;-60
2021/01/03 02:43:33;;;;;;;85.75;28.38;;;4.40;99.90;;;;;;5111884;27;20535;-59
2021/01/03 02:45:59;;;;;;;79.00;28.77;;;4.30;99.90;;;;;;5110320;27;20392;-60
2021/01/03 02:48:25;;;;;;;80.53;27.30;;;4.30;99.90;;;;;;5111916;28;20473;-60
2021/01/03 02:50:51;;;;;;;78.80;26.50;;;4.30;99.90;;;;;;5125481;27;20091;-60
2021/01/03 02:53:18;;;;;;;80.13;27.90;;;4.40;99.90;;;;;;5121960;27;20026;-60
2021/01/03 02:55:43;;;;;;;78.22;27.58;;;4.40;99.90;;;;;;5115161;27;20027;-60
2021/01/03 02:58:09;;;;;;;79.63;26.92;;;4.40;99.90;;;;;;5127467;27;20031;-59
2021/01/03 03:00:38;;;;;;;93.53;29.77;;;4.50;99.90;;;;;;5128082;27;20043;-59
2021/01/03 03:03:05;;;;;;;92.10;28.98;;;4.40;99.90;;;;;;5122773;27;20020;-58
2021/01/03 03:05:31;;;;;;;127.85;31.42;;;4.40;99.90;;;;;;5112029;28;20062;-59
2021/01/03 03:07:57;;;;;;;94.13;29.85;;;4.30;99.90;;;;;;5124207;27;20059;-60
2021/01/03 03:10:23;;;;;;;106.60;31.13;;;4.20;99.90;;;;;;5119330;27;20015;-60
2021/01/03 03:12:55;;;;;;;99.53;29.38;;;4.30;99.90;;;;;;5099042;28;20024;-60
2021/01/03 03:15:22;;;;;;;99.15;29.20;;;4.30;99.90;;;;;;5116689;27;20131;-60
2021/01/03 03:17:48;;;;;;;109.38;30.83;;;4.30;99.90;;;;;;5113017;27;20327;-61
2021/01/03 03:20:15;;;;;;;114.82;31.65;;;4.40;99.90;;;;;;5115401;27;20038;-61
2021/01/03 03:22:41;;;;;;;135.82;34.38;;;4.30;99.90;;;;;;5107707;28;20088;-59
2021/01/03 03:25:08;;;;;;;132.65;32.88;;;4.30;99.90;;;;;;5110447;27;20027;-60
2021/01/03 03:27:34;;;;;;;115.68;32.08;;;4.20;99.90;;;;;;5111796;28;20477;-59
2021/01/03 03:30:00;;;;;;;127.25;33.85;;;4.20;99.90;;;;;;5109673;28;20023;-59
2021/01/03 03:32:25;;;;;;;159.93;35.58;;;4.20;99.90;;;;;;5110380;28;20016;-63
2021/01/03 03:34:51;;;;;;;151.10;36.10;;;4.10;99.90;;;;;;5110821;28;20032;-60
2021/01/03 03:37:16;;;;;;;164.05;36.65;;;4.10;99.90;;;;;;5112194;28;20031;-59
2021/01/03 03:39:42;;;;;;;123.32;35.17;;;4.00;99.90;;;;;;5121547;28;20031;-59
2021/01/03 03:42:07;;;;;;;134.40;35.92;;;4.00;99.90;;;;;;5115545;28;20564;-59
2021/01/03 03:44:33;;;;;;;138.63;34.10;;;4.00;99.90;;;;;;5116080;27;20019;-59
2021/01/03 03:47:03;;;;;;;150.80;35.30;;;4.00;99.90;;;;;;5117110;27;20028;-59
2021/01/03 03:49:31;;;;;;;157.63;35.30;;;3.90;99.90;;;;;;5105698;28;20034;-59
2021/01/03 03:51:59;;;;;;;136.95;33.40;;;3.90;99.90;;;;;;5125655;27;20041;-59
2021/01/03 03:54:25;;;;;;;133.35;33.15;;;3.90;99.90;;;;;;5128626;27;20110;-57
2021/01/03 03:56:52;;;;;;;112.15;31.25;;;4.00;99.90;;;;;;5127526;27;20027;-58
2021/01/03 03:59:18;;;;;;;113.88;30.35;;;3.90;99.90;;;;;;5116595;27;20020;-61
2021/01/03 04:01:44;;;;;;;97.63;27.92;;;3.90;99.90;;;;;;5116712;27;20523;-60
2021/01/03 04:04:09;;;;;;;92.60;27.35;;;3.90;99.90;;;;;;5117221;27;20020;-60
2021/01/03 04:06:35;;;;;;;107.60;28.05;;;4.00;99.90;;;;;;5117656;27;20024;-59
2021/01/03 04:09:01;;;;;;;112.68;28.83;;;4.00;99.90;;;;;;5116699;27;20521;-59
2021/01/03 04:11:26;;;;;;;114.93;30.27;;;3.90;99.90;;;;;;5117253;27;20565;-59
2021/01/03 04:13:52;;;;;;;103.53;28.58;;;3.90;99.90;;;;;;5116292;27;20027;-60
2021/01/03 04:16:17;;;;;;;113.53;31.52;;;4.00;99.90;;;;;;5116815;27;20412;-59
2021/01/03 04:18:44;;;;;;;119.68;30.50;;;3.90;99.90;;;;;;5117922;27;20402;-60
2021/01/03 04:21:11;;;;;;;114.78;28.50;;;3.90;99.90;;;;;;5117839;27;20054;-59
2021/01/03 04:23:37;;;;;;;127.32;32.00;;;3.80;99.90;;;;;;5117367;27;20401;-59
2021/01/03 04:26:03;;;;;;;125.80;29.67;;;3.90;99.90;;;;;;5117432;27;20035;-59
2021/01/03 04:28:28;;;;;;;124.53;31.00;;;3.90;99.90;;;;;;5130302;27;20065;-59
2021/01/03 04:30:54;;;;;;;112.75;28.58;;;3.90;99.90;;;;;;5118247;27;20469;-59
2021/01/03 04:33:19;;;;;;;122.18;31.35;;;4.00;99.90;;;;;;5118259;27;20475;-59
2021/01/03 04:35:48;;;;;;;112.50;30.13;;;4.00;99.90;;;;;;5128506;27;20513;-60
2021/01/03 04:38:14;;;;;;;115.53;28.42;;;4.00;99.90;;;;;;5118337;28;20102;-59
2021/01/03 04:40:40;;;;;;;108.93;30.35;;;4.10;99.90;;;;;;5130626;27;20115;-60
2021/01/03 04:43:12;;;;;;;116.68;29.88;;;4.10;99.90;;;;;;5117142;27;20125;-59
2021/01/03 04:45:39;;;;;;;116.67;28.63;;;4.00;99.90;;;;;;5116885;27;20408;-60
2021/01/03 04:48:23;;;;;;;106.47;27.65;;;4.00;99.90;;;;;;5118552;27;20016;-59
2021/01/03 04:51:20;;;;;;;126.88;30.63;;;3.90;99.90;;;;;;5131843;27;20016;-59
2021/01/03 04:54:18;;;;;;;115.30;29.08;;;4.00;99.90;;;;;;5119896;27;20028;-60
2021/01/03 04:56:50;;;;;;;111.25;28.70;;;3.90;99.90;;;;;;5113103;27;20556;-59
2021/01/03 04:59:21;;;;;;;108.25;28.23;;;3.90;99.90;;;;;;5116530;27;20024;-61
2021/01/03 05:01:55;;;;;;;96.88;26.17;;;4.00;99.90;;;;;;5121258;27;20355;-59
2021/01/03 05:04:45;;;;;;;106.47;27.33;;;4.00;99.90;;;;;;5130228;27;20110;-59
2021/01/03 05:07:17;;;;;;;111.03;27.92;;;4.10;99.90;;;;;;5128294;27;20066;-59
2021/01/03 05:09:43;;;;;;;100.32;28.73;;;4.00;99.90;;;;;;5132298;27;20034;-60
2021/01/03 05:12:25;;;;;;;101.15;27.23;;;4.10;99.90;;;;;;5108716;27;20038;-62
2021/01/03 05:15:06;;;;;;;106.82;29.27;;;4.20;99.90;;;;;;5129098;27;20039;-60
2021/01/03 05:17:31;;;;;;;119.40;28.30;;;4.20;99.90;;;;;;5130420;27;20518;-59
2021/01/03 05:19:57;;;;;;;128.32;30.25;;;4.10;99.90;;;;;;5132582;27;20114;-60
2021/01/03 05:22:34;;;;;;;133.63;31.70;;;4.10;99.90;;;;;;5124232;27;20028;-59
2021/01/03 05:25:01;;;;;;;104.10;27.17;;;4.00;99.90;;;;;;5125498;27;20038;-59
2021/01/03 05:27:28;;;;;;;126.95;32.13;;;4.00;99.90;;;;;;5117366;27;20031;-59
2021/01/03 05:30:20;;;;;;;131.05;30.23;;;4.00;99.90;;;;;;5123078;27;20064;-59
2021/01/03 05:32:46;;;;;;;139.68;31.50;;;4.00;99.90;;;;;;5124690;27;20814;-58
2021/01/03 05:35:19;;;;;;;142.77;31.75;;;4.00;99.90;;;;;;5123257;27;20031;-59
2021/01/03 05:37:45;;;;;;;133.30;31.65;;;4.00;99.90;;;;;;5132824;27;20023;-59
2021/01/03 05:40:40;;;;;;;120.20;30.70;;;3.90;99.90;;;;;;5131651;27;20023;-58
2021/01/03 05:43:25;;;;;;;131.32;34.15;;;3.90;99.90;;;;;;5149855;27;20044;-59
2021/01/03 05:46:08;;;;;;;137.70;32.47;;;3.90;99.90;;;;;;5129722;27;20107;-60
2021/01/03 05:48:44;;;;;;;112.90;29.15;;;4.00;99.90;;;;;;5125595;27;20150;-59
2021/01/03 05:51:29;;;;;;;128.27;31.98;;;3.90;99.90;;;;;;5128217;27;20116;-59
2021/01/03 05:54:01;;;;;;;112.57;29.73;;;4.00;99.90;;;;;;5129798;27;20480;-59
2021/01/03 05:56:27;;;;;;;112.70;29.30;;;4.10;99.90;;;;;;5125584;27;20551;-59
2021/01/03 05:58:54;;;;;;;123.68;30.35;;;4.00;99.90;;;;;;5124078;27;20023;-59
2021/01/03 06:01:26;;;;;;;94.68;25.63;;;4.00;99.90;;;;;;5128945;27;20043;-61
2021/01/03 06:04:17;;;;;;;111.70;28.88;;;4.00;99.90;;;;;;5124713;27;20495;-59
2021/01/03 06:06:45;;;;;;;107.50;28.60;;;4.00;99.90;;;;;;5123347;27;20068;-61
2021/01/03 06:09:12;;;;;;;97.28;28.88;;;4.10;99.90;;;;;;5126844;27;20020;-60
2021/01/03 06:11:38;;;;;;;81.85;26.90;;;4.20;99.90;;;;;;5124967;27;20023;-60
2021/01/03 06:14:04;;;;;;;83.63;26.17;;;4.10;99.90;;;;;;5129205;27;20073;-59
2021/01/03 06:16:36;;;;;;;90.13;26.05;;;4.10;99.90;;;;;;5122194;27;20515;-61
2021/01/03 06:19:02;;;;;;;;;;;4.10;99.90;;;;;;5117121;27;20044;-59
2021/01/03 06:21:36;;;;;;;87.35;26.42;;;4.10;99.90;;;;;;5123547;27;19911;-59
2021/01/03 06:24:07;;;;;;;87.70;25.38;;;4.10;99.90;;;;;;5128741;27;20023;-60
2021/01/03 06:26:42;;;;;;;93.38;27.92;;;4.10;99.90;;;;;;5123762;27;20103;-59
2021/01/03 06:29:29;;;;;;;93.40;25.10;;;4.00;99.90;;;;;;5122755;27;20399;-58
2021/01/03 06:32:12;;;;;;;83.57;24.10;;;4.00;99.90;;;;;;5122970;27;20023;-59
2021/01/03 06:34:37;;;;;;;;;;;4.00;99.90;;;;;;5126560;27;20023;-59
2021/01/03 06:37:06;;;;;;;91.80;27.08;;;4.10;99.90;;;;;;5122029;27;19915;-59
2021/01/03 06:39:58;;;;;;;84.07;26.27;;;4.10;99.90;;;;;;5123366;27;20123;-59
2021/01/03 06:42:48;;;;;;;83.88;26.17;;;4.10;99.90;;;;;;5122134;27;20027;-60
2021/01/03 06:45:23;;;;;;;87.30;26.27;;;4.10;99.90;;;;;;5117708;27;20469;-59
2021/01/03 06:48:24;;;;;;;85.78;26.77;;;4.10;99.90;;;;;;5111421;28;20042;-59
2021/01/03 06:51:19;;;;;;;82.38;25.17;;;4.10;99.90;;;;;;5115394;27;20041;-59
2021/01/03 06:54:22;;;;;;;95.65;26.92;;;4.00;99.90;;;;;;5122887;27;20031;-59
2021/01/03 06:57:19;;;;;;;85.03;26.20;;;4.10;99.90;;;;;;5113115;27;20481;-60
2021/01/03 07:00:14;;;;;;;97.93;27.02;;;4.10;99.90;;;;;;5121291;27;20038;-60
2021/01/03 07:02:47;;;;;;;76.07;24.50;;;4.00;99.90;;;;;;5108001;27;20089;-59
2021/01/03 07:05:14;;;;;;;75.90;23.92;;;4.10;99.90;;;;;;5118601;27;20072;-60
2021/01/03 07:07:44;;;;;;;77.10;24.40;;;4.20;99.90;;;;;;5113418;27;20028;-59
2021/01/03 07:10:18;;;;;;;91.10;25.45;;;4.20;99.90;;;;;;5120523;27;20024;-59
2021/01/03 07:12:49;;;;;;;85.10;26.73;;;4.20;99.90;;;;;;5120223;27;20110;-59
2021/01/03 07:15:27;;;;;;;87.72;26.75;;;4.10;99.90;;;;;;5116086;27;20024;-59
2021/01/03 07:17:55;;;;;;;86.18;25.27;;;4.00;99.90;;;;;;5100638;27;20564;-58
2021/01/03 07:20:50;;;;;;;88.85;26.88;;;3.90;99.90;;;;;;5122764;27;20039;-58
2021/01/03 07:23:44;;;;;;;77.93;24.65;;;3.80;99.90;;;;;;5083634;27;20092;-60
2021/01/03 07:26:30;;;;;;;86.93;24.60;;;3.80;99.90;;;;;;5115915;27;20480;-59
2021/01/03 07:29:12;;;;;;;94.50;29.83;;;3.80;99.90;;;;;;5113773;27;20035;-59
2021/01/03 07:32:02;;;;;;;96.43;25.85;;;3.80;99.90;;;;;;5121811;27;20028;-59
2021/01/03 07:34:31;;;;;;;78.18;25.73;;;3.80;99.90;;;;;;5123530;27;20055;-59
2021/01/03 07:37:18;;;;;;;94.30;27.10;;;3.80;99.90;;;;;;5125958;27;20037;-57
2021/01/03 07:40:03;;;;;;;100.50;27.55;;;3.70;99.90;;;;;;5123169;27;20023;-60
2021/01/03 07:42:42;;;;;;;96.82;29.13;;;3.70;99.90;;;;;;5121703;28;20019;-59
2021/01/03 07:45:13;;;;;;;100.32;29.52;;;3.60;99.90;;;;;;5113869;28;20019;-59
2021/01/03 07:47:45;;;;;;;109.80;30.35;;;3.60;99.90;;;;;;5123305;28;20028;-60
2021/01/03 07:50:16;;;;;;;102.30;27.25;;;3.60;99.90;;;;;;5107840;28;20543;-60
2021/01/03 07:52:49;;;;;;;99.68;28.38;;;3.60;99.90;;;;;;5122556;28;20549;-61
2021/01/03 07:55:35;;;;;;;108.30;30.30;;;3.60;99.90;;;;;;5117260;28;20061;-59
2021/01/03 07:58:10;;;;;;;104.68;29.75;;;3.50;99.90;;;;;;5124729;28;20527;-59
2021/01/03 08:00:39;;;;;;;90.50;28.80;;;3.60;99.90;;;;;;5126768;27;20058;-59
2021/01/03 08:03:10;;;;;;;99.70;28.75;;;3.50;99.90;;;;;;5117642;28;20064;-59
2021/01/03 08:05:37;;;;;;;104.15;29.42;;;3.50;99.90;;;;;;5121107;28;20023;-59
2021/01/03 08:08:18;;;;;;;106.70;27.95;;;3.50;99.90;;;;;;5122943;28;20040;-60
2021/01/03 08:10:45;;;;;;;99.22;28.90;;;3.60;99.90;;;;;;5118306;28;20028;-59
2021/01/03 08:13:27;;;;;;;96.05;27.48;;;3.60;99.90;;;;;;5125765;28;20031;-59
2021/01/03 08:15:58;;;;;;;97.35;27.25;;;3.60;99.90;;;;;;5111696;28;20026;-60
2021/01/03 08:18:24;;;;;;;93.88;28.00;;;3.70;99.90;;;;;;5110798;28;20110;-60
2021/01/03 08:20:50;;;;;;;90.35;28.65;;;3.80;99.90;;;;;;5123886;28;20407;-60
2021/01/03 08:23:32;;;;;;;86.82;28.35;;;3.70;99.90;;;;;;5118496;28;20064;-59
2021/01/03 08:26:07;;;;;;;100.53;32.00;;;3.70;99.90;;;;;;5121589;28;20039;-59
2021/01/03 08:28:36;;;;;;;108.20;31.70;;;3.70;99.90;;;;;;5125078;28;20023;-59
2021/01/03 08:31:02;;;;;;;108.82;31.20;;;3.60;99.90;;;;;;5122320;27;20011;-60
2021/01/03 08:33:37;;;;;;;110.30;32.35;;;3.60;99.90;;;;;;5107450;27;20015;-60
2021/01/03 08:36:24;;;;;;;95.65;28.02;;;3.50;99.90;;;;;;5123837;27;20012;-60
2021/01/03 08:38:51;;;;;;;107.55;30.58;;;3.60;99.90;;;;;;5114496;27;20027;-59
2021/01/03 08:41:23;;;;;;;101.38;29.48;;;3.60;99.90;;;;;;5097444;28;20027;-60
2021/01/03 08:43:49;;;;;;;110.18;31.25;;;3.60;99.90;;;;;;5126124;27;20488;-59
2021/01/03 08:46:20;;;;;;;101.95;30.08;;;3.60;99.90;;;;;;5099480;27;20027;-60
2021/01/03 08:48:49;;;;;;;106.72;31.63;;;3.50;99.90;;;;;;5121136;27;20053;-59
2021/01/03 08:51:16;;;;;;;112.32;30.92;;;3.60;99.90;;;;;;5130789;27;20019;-60
2021/01/03 08:53:42;;;;;;;117.10;32.00;;;3.60;99.90;;;;;;5127822;27;20429;-60
2021/01/03 08:56:26;;;;;;;107.88;30.63;;;3.60;99.90;;;;;;5122636;27;20058;-60
2021/01/03 08:58:51;;;;;;;112.75;32.28;;;3.60;99.90;;;;;;5123690;27;20047;-60
2021/01/03 09:01:30;;;;;;;105.60;31.05;;;3.60;99.90;;;;;;5126010;27;20062;-59
2021/01/03 09:04:07;;;;;;;104.38;31.50;;;3.50;99.90;;;;;;5139951;27;20015;-59
2021/01/03 09:06:34;;;;;;;103.13;31.23;;;3.60;99.90;;;;;;5145051;27;20019;-59
2021/01/03 09:09:19;;;;;;;100.95;30.65;;;3.60;99.90;;;;;;5120336;27;20030;-59
2021/01/03 09:11:53;;;;;;;93.63;28.35;;;3.50;99.90;;;;;;5130427;27;20539;-59
2021/01/03 09:14:42;;;;;;;101.13;30.27;;;3.60;99.90;;;;;;5131330;27;20011;-59
2021/01/03 09:17:17;;;;;;;99.32;29.35;;;3.60;99.90;;;;;;5127023;27;20110;-58
2021/01/03 09:19:43;;;;;;;100.93;31.00;;;3.60;99.90;;;;;;5128553;27;20024;-58
2021/01/03 09:22:10;;;;;;;77.20;26.60;;;3.60;99.90;;;;;;5122746;27;20050;-59
2021/01/03 09:24:36;;;;;;;96.20;29.80;;;3.60;99.90;;;;;;5128549;27;20427;-59
2021/01/03 09:27:05;;;;;;;92.63;29.48;;;3.70;99.90;;;;;;5127150;27;20098;-58
2021/01/03 09:29:37;;;;;;;88.53;27.98;;;3.70;99.90;;;;;;5117129;27;20429;-58
2021/01/03 09:32:21;;;;;;;93.53;29.83;;;3.60;99.90;;;;;;5119383;27;20102;-60
2021/01/03 09:34:57;;;;;;;95.90;30.15;;;3.70;99.90;;;;;;5127597;27;20019;-60
2021/01/03 09:37:30;;;;;;;101.95;29.73;;;3.70;99.90;;;;;;5126649;27;20053;-60
2021/01/03 09:40:10;;;;;;;111.75;30.83;;;3.70;99.90;;;;;;5128876;27;20441;-61
2021/01/03 09:42:47;;;;;;;94.85;30.60;;;3.70;99.90;;;;;;5120213;27;20024;-62
2021/01/03 09:45:25;;;;;;;95.45;28.92;;;3.70;99.90;;;;;;5129005;27;20056;-61
2021/01/03 09:47:51;;;;;;;96.05;30.63;;;3.70;99.90;;;;;;5123652;27;20031;-60
2021/01/03 09:50:38;;;;;;;85.43;29.75;;;3.70;99.90;;;;;;5127709;27;20160;-59
2021/01/03 09:53:18;;;;;;;91.05;29.30;;;3.70;99.90;;;;;;5105303;27;20023;-59
2021/01/03 09:56:01;;;;;;;83.30;28.45;;;3.70;99.90;;;;;;5127760;27;20019;-59
2021/01/03 09:58:41;;;;;;;73.30;28.55;;;3.70;99.90;;;;;;5125792;27;20084;-59
2021/01/03 10:01:22;;;;;;;70.65;26.23;;;3.80;99.90;;;;;;5116960;27;20055;-59
2021/01/03 10:03:47;;;;;;;79.75;28.45;;;3.80;99.90;;;;;;5117846;27;20063;-60
2021/01/03 10:06:16;;;;;;;78.68;26.45;;;3.80;99.90;;;;;;5103973;28;20019;-61
2021/01/03 10:08:42;;;;;;;75.80;27.23;;;3.80;99.90;;;;;;5111779;27;20051;-59
2021/01/03 10:11:08;;;;;;;80.63;27.80;;;3.90;99.90;;;;;;5118440;27;20051;-60
2021/01/03 10:13:34;;;;;;;74.03;26.83;;;3.90;99.90;;;;;;5118066;27;20102;-60
2021/01/03 10:16:17;;;;;;;63.20;25.63;;;4.00;99.90;;;;;;5076900;28;20151;-59
2021/01/03 10:18:43;;;;;;;70.35;24.63;;;4.10;99.90;;;;;;5109779;27;20481;-60
2021/01/03 10:21:37;;;;;;;61.80;24.70;;;4.00;99.90;;;;;;5120663;27;20106;-58
2021/01/03 10:24:18;;;;;;;59.97;24.20;;;4.00;99.90;;;;;;5109748;27;20027;-60
2021/01/03 10:27:11;;;;;;;63.10;21.95;;;4.10;99.90;;;;;;5113850;27;20024;-60
2021/01/03 10:29:37;;;;;;;62.30;23.48;;;4.10;99.90;;;;;;5117713;27;20094;-61
2021/01/03 10:32:02;;;;;;;56.15;22.75;;;4.20;99.90;;;;;;5112963;27;20488;-59
2021/01/03 10:34:28;;;;;;;61.03;23.08;;;4.10;99.90;;;;;;5116844;27;20219;-59
2021/01/03 10:36:57;;;;;;;52.85;21.40;;;4.20;99.90;;;;;;5121899;27;20023;-60
2021/01/03 10:39:24;;;;;;;47.17;19.98;;;4.20;99.90;;;;;;5112195;28;20476;-59
2021/01/03 10:41:49;;;;;;;55.67;22.05;;;4.20;99.90;;;;;;5117355;27;20080;-59
2021/01/03 10:44:16;;;;;;;47.72;20.00;;;4.30;99.90;;;;;;5114249;27;20032;-60
2021/01/03 10:46:41;;;;;;;54.60;21.83;;;4.30;99.90;;;;;;5119380;27;20031;-59
2021/01/03 10:49:09;;;;;;;52.58;20.48;;;4.30;99.90;;;;;;5111620;28;20339;-61
2021/01/03 10:51:41;;;;;;;46.20;19.42;;;4.40;99.90;;;;;;5112806;27;20015;-61
2021/01/03 10:54:09;;;;;;;53.03;20.73;;;4.50;99.90;;;;;;5120035;27;20019;-60
2021/01/03 10:56:36;;;;;;;45.22;19.50;;;4.50;99.90;;;;;;5108868;27;20043;-60
2021/01/03 10:59:06;;;;;;;48.50;19.08;;;4.50;99.90;;;;;;5118173;27;20023;-59
2021/01/03 11:01:32;;;;;;;44.90;18.77;;;4.60;99.90;;;;;;5116115;27;20059;-60
2021/01/03 11:03:58;;;;;;;46.00;18.52;;;4.60;99.90;;;;;;5122909;27;20024;-59
2021/01/03 11:06:24;;;;;;;43.25;18.25;;;4.60;99.90;;;;;;5125599;27;20027;-60
2021/01/03 11:08:49;;;;;;;42.50;16.70;;;4.40;99.90;;;;;;5122820;27;20028;-60
2021/01/03 11:11:20;;;;;;;40.20;17.15;;;4.50;99.90;;;;;;5118441;27;20019;-60
2021/01/03 11:13:46;;;;;;;40.65;17.08;;;4.50;99.90;;;;;;5116731;27;20031;-60
2021/01/03 11:16:12;;;;;;;35.03;16.58;;;4.40;99.90;;;;;;5123567;27;20481;-60
2021/01/03 11:18:37;;;;;;;45.60;18.63;;;4.40;99.90;;;;;;5128210;27;20027;-59
2021/01/03 11:21:10;;;;;;;35.03;16.33;;;4.30;99.90;;;;;;5118625;27;20020;-59
2021/01/03 11:23:36;;;;;;;;;;;4.30;99.90;;;;;;5121722;27;20055;-60
2021/01/03 11:26:02;;;;;;;35.40;15.70;;;4.30;99.90;;;;;;5128085;27;19959;-60
2021/01/03 11:28:27;;;;;;;35.17;17.60;;;4.30;99.90;;;;;;5123073;27;20031;-60
2021/01/03 11:30:53;;;;;;;41.05;16.48;;;4.30;99.90;;;;;;5127274;27;20501;-60
2021/01/03 11:33:18;;;;;;;45.15;16.35;;;4.30;99.90;;;;;;5121139;27;20129;-60
2021/01/03 11:35:44;;;;;;;40.47;16.13;;;4.30;99.90;;;;;;5123771;27;20102;-62
2021/01/03 11:38:10;;;;;;;37.15;17.05;;;4.30;99.90;;;;;;5110469;27;20025;-60
2021/01/03 11:40:35;;;;;;;33.95;16.10;;;4.30;99.90;;;;;;5128016;27;20053;-62
2021/01/03 11:43:01;;;;;;;34.13;15.82;;;4.20;99.90;;;;;;5111690;28;20022;-61
2021/01/03 11:45:26;;;;;;;32.38;14.57;;;4.20;99.90;;;;;;5129084;28;20558;-60
2021/01/03 11:47:52;;;;;;;33.00;15.38;;;4.20;99.90;;;;;;5127487;28;20416;-59
2021/01/03 11:50:22;;;;;;;31.73;16.05;;;4.20;99.90;;;;;;5125335;28;20532;-60
2021/01/03 11:52:47;;;;;;;38.42;15.43;;;4.20;99.90;;;;;;5127292;28;20027;-60
2021/01/03 11:55:15;;;;;;;32.90;14.25;;;4.20;99.90;;;;;;5109782;28;20038;-61
2021/01/03 11:57:41;;;;;;;32.88;13.90;;;4.20;99.90;;;;;;5128969;28;20027;-59
2021/01/03 12:00:09;;;;;;;31.33;14.55;;;4.20;99.90;;;;;;5121918;28;20412;-60
2021/01/03 12:02:34;;;;;;;32.72;13.10;;;4.20;99.90;;;;;;5126369;22;20474;-62
2021/01/03 12:05:00;;;;;;;28.55;13.43;;;4.20;99.90;;;;;;5101405;28;20047;-63
2021/01/03 12:07:26;;;;;;;33.22;12.82;;;4.20;99.90;;;;;;5112631;28;20082;-63
2021/01/03 12:09:51;;;;;;;27.85;12.90;;;4.20;99.90;;;;;;5113652;27;20027;-62
2021/01/03 12:12:20;;;;;;;24.95;11.40;;;4.20;99.90;;;;;;5094335;28;20119;-62
2021/01/03 12:14:46;;;;;;;27.90;12.02;;;4.20;99.90;;;;;;5110279;28;20020;-63
2021/01/03 12:17:16;;;;;;;28.88;10.77;;;4.20;99.90;;;;;;5108415;28;20028;-62
2021/01/03 12:19:43;;;;;;;23.05;10.70;;;4.20;99.90;;;;;;5108849;28;20039;-64
2021/01/03 12:22:08;;;;;;;21.40;10.82;;;4.20;99.90;;;;;;5094926;28;20488;-63
2021/01/03 12:24:34;;;;;;;19.33;9.05;;;4.20;99.90;;;;;;5107505;28;20027;-63
2021/01/03 12:27:00;;;;;;;20.20;9.93;;;4.10;99.90;;;;;;5099149;28;20384;-63
2021/01/03 12:29:26;;;;;;;19.85;8.98;;;4.10;99.90;;;;;;5114185;28;20061;-62
2021/01/03 12:31:56;;;;;;;20.00;9.95;;;4.20;99.90;;;;;;5112916;28;20051;-62
2021/01/03 12:34:24;;;;;;;23.17;11.27;;;4.20;99.90;;;;;;5109528;28;20480;-62
2021/01/03 12:36:51;;;;;;;18.20;9.63;;;4.20;99.90;;;;;;5111986;28;20099;-63
2021/01/03 12:39:18;;;;;;;19.75;9.35;;;4.20;99.90;;;;;;5114512;28;20038;-61
2021/01/03 12:41:44;;;;;;;26.10;8.23;;;4.20;99.90;;;;;;5114408;28;20030;-62
2021/01/03 12:44:10;;;;;;;18.63;9.07;;;4.20;99.90;;;;;;5099170;28;20016;-63
2021/01/03 12:46:39;;;;;;;17.38;9.50;;;4.20;99.90;;;;;;5096275;28;20024;-63
2021/01/03 12:49:06;;;;;;;17.60;8.65;;;4.20;99.90;;;;;;5109166;28;20050;-64
2021/01/03 12:51:32;;;;;;;18.23;9.32;;;4.20;99.90;;;;;;5114054;28;20023;-63
2021/01/03 12:53:58;;;;;;;16.25;9.45;;;4.10;99.90;;;;;;5109287;28;20038;-60
2021/01/03 12:56:24;;;;;;;17.02;9.27;;;4.10;99.90;;;;;;5103408;28;20099;-62